Time;durP1;ratioP1;P1;durP2;ratioP2;P2;SDS_P1;SDS_P2;PMS_P1;PMS_P2;Temp;Humidity;BMP_temperature;BMP_pressure;BME280_temperature;BME280_humidity;BME280_pressure;Samples;Min_cycle;Max_cycle;Signal;HPM_P1;HPM_P2
2024/01/30 00:00:58;;;;;;;76.50;65.97;;;;;;;;;;5000161;28;20030;-76
2024/01/30 00:03:24;;;;;;;85.13;75.35;;;;;;;;;;5016448;28;20056;-75
2024/01/30 00:05:49;;;;;;;135.65;110.88;;;;;;;;;;5024425;28;20037;-75
2024/01/30 00:08:14;;;;;;;145.98;118.45;;;;;;;;;;5018972;28;20021;-77
2024/01/30 00:10:40;;;;;;;169.88;119.85;;;;;;;;;;5017732;28;20104;-76
2024/01/30 00:13:05;;;;;;;110.15;89.45;;;;;;;;;;5017928;28;20029;-76
2024/01/30 00:15:31;;;;;;;107.80;87.20;;;;;;;;;;5017615;28;20117;-81
2024/01/30 00:17:56;;;;;;;102.45;81.43;;;;;;;;;;5017505;28;20032;-78
2024/01/30 00:20:22;;;;;;;116.70;97.18;;;;;;;;;;5017135;28;20036;-80
2024/01/30 00:22:47;;;;;;;126.45;105.68;;;;;;;;;;5024202;28;20029;-76
2024/01/30 00:25:13;;;;;;;133.10;111.25;;;;;;;;;;5022692;28;20561;-75
2024/01/30 00:27:38;;;;;;;83.25;70.57;;;;;;;;;;5026283;28;20055;-75
2024/01/30 00:30:04;;;;;;;83.47;67.55;;;;;;;;;;5024159;28;20022;-76
2024/01/30 00:32:30;;;;;;;83.43;73.28;;;;;;;;;;5019962;28;20025;-80
2024/01/30 00:34:55;;;;;;;90.97;78.97;;;;;;;;;;5026856;28;20025;-77
2024/01/30 00:37:20;;;;;;;87.40;75.97;;;;;;;;;;5027724;28;20064;-76
2024/01/30 00:39:46;;;;;;;81.80;68.97;;;;;;;;;;5021324;28;20372;-79
2024/01/30 00:42:11;;;;;;;70.28;61.60;;;;;;;;;;5018328;28;20159;-76
2024/01/30 00:44:39;;;;;;;86.60;70.05;;;;;;;;;;5021653;28;20029;-76
2024/01/30 00:47:05;;;;;;;85.53;71.93;;;;;;;;;;5027519;28;20091;-79
2024/01/30 00:49:30;;;;;;;108.93;88.05;;;;;;;;;;5020109;28;20433;-76
2024/01/30 00:51:56;;;;;;;106.38;86.35;;;;;;;;;;5024304;28;20104;-80
2024/01/30 00:54:21;;;;;;;90.63;75.38;;;;;;;;;;5019037;28;20026;-77
2024/01/30 00:56:46;;;;;;;86.90;74.40;;;;;;;;;;5026410;28;20029;-76
2024/01/30 00:59:12;;;;;;;104.43;84.20;;;;;;;;;;5025226;28;20349;-76
2024/01/30 01:01:37;;;;;;;81.13;65.30;;;;;;;;;;5019553;28;20466;-76
2024/01/30 01:04:02;;;;;;;95.30;79.35;;;;;;;;;;5026889;28;20073;-77
2024/01/30 01:06:28;;;;;;;97.68;76.43;;;;;;;;;;5025391;28;20030;-76
2024/01/30 01:08:53;;;;;;;118.50;93.57;;;;;;;;;;5020802;28;20029;-76
2024/01/30 01:11:18;;;;;;;183.75;138.32;;;;;;;;;;5018930;28;20029;-76
2024/01/30 01:13:44;;;;;;;190.88;138.70;;;;;;;;;;5026713;28;20040;-80
2024/01/30 01:16:09;;;;;;;108.10;81.90;;;;;;;;;;5009110;28;20049;-76
2024/01/30 01:18:34;;;;;;;127.15;100.68;;;;;;;;;;5026688;28;20036;-76
2024/01/30 01:21:00;;;;;;;109.50;86.35;;;;;;;;;;5026743;28;20032;-78
2024/01/30 01:23:26;;;;;;;87.70;72.32;;;;;;;;;;5014035;28;20038;-75
2024/01/30 01:25:51;;;;;;;88.68;74.10;;;;;;;;;;5026644;28;20041;-77
2024/01/30 01:28:16;;;;;;;90.50;75.30;;;;;;;;;;5026649;28;20025;-77
2024/01/30 01:30:42;;;;;;;136.20;109.80;;;;;;;;;;5026411;28;20500;-76
2024/01/30 01:33:07;;;;;;;138.68;113.05;;;;;;;;;;5009693;28;20045;-77
2024/01/30 01:35:32;;;;;;;124.35;99.53;;;;;;;;;;5026322;28;20356;-76
2024/01/30 01:38:00;;;;;;;106.20;89.68;;;;;;;;;;5026492;28;20353;-80
2024/01/30 01:40:25;;;;;;;95.32;79.93;;;;;;;;;;5026330;28;20029;-78
2024/01/30 01:42:54;;;;;;;105.40;88.25;;;;;;;;;;5026057;28;20040;-77
2024/01/30 01:45:20;;;;;;;114.38;92.82;;;;;;;;;;5018739;28;20506;-77
2024/01/30 01:47:47;;;;;;;128.82;102.68;;;;;;;;;;5023924;28;20025;-77
2024/01/30 01:50:13;;;;;;;132.43;108.03;;;;;;;;;;5024840;28;20079;-76
2024/01/30 01:52:40;;;;;;;161.07;127.97;;;;;;;;;;5025998;28;20115;-77
2024/01/30 01:55:05;;;;;;;139.45;112.88;;;;;;;;;;5025946;28;20511;-77
2024/01/30 01:57:31;;;;;;;145.85;118.45;;;;;;;;;;5026329;28;20096;-76
2024/01/30 01:59:56;;;;;;;118.78;96.35;;;;;;;;;;5025771;28;20080;-76
2024/01/30 02:02:23;;;;;;;89.47;73.63;;;;;;;;;;5026000;28;20032;-76
2024/01/30 02:04:48;;;;;;;66.70;56.72;;;;;;;;;;5026076;28;20088;-77
2024/01/30 02:07:14;;;;;;;59.63;50.30;;;;;;;;;;5025708;28;20065;-80
2024/01/30 02:09:39;;;;;;;62.50;52.67;;;;;;;;;;5008089;28;20375;-77
2024/01/30 02:12:05;;;;;;;70.20;55.75;;;;;;;;;;5026096;28;20030;-76
2024/01/30 02:14:30;;;;;;;78.72;61.95;;;;;;;;;;5025768;28;20197;-78
2024/01/30 02:16:55;;;;;;;92.03;75.05;;;;;;;;;;5025802;28;20029;-76
2024/01/30 02:19:21;;;;;;;142.75;109.75;;;;;;;;;;5007775;28;20111;-74
2024/01/30 02:21:46;;;;;;;128.70;104.13;;;;;;;;;;5025642;28;20068;-75
2024/01/30 02:24:11;;;;;;;156.35;122.85;;;;;;;;;;5025188;28;20044;-76
2024/01/30 02:26:37;;;;;;;136.75;106.35;;;;;;;;;;5008469;28;20029;-75
2024/01/30 02:29:02;;;;;;;103.70;85.00;;;;;;;;;;5025306;28;20022;-76
2024/01/30 02:31:27;;;;;;;103.68;85.25;;;;;;;;;;5016523;28;20040;-75
2024/01/30 02:33:52;;;;;;;93.20;77.53;;;;;;;;;;5025244;28;20055;-76
2024/01/30 02:36:18;;;;;;;91.47;75.85;;;;;;;;;;5025525;28;20032;-77
2024/01/30 02:38:43;;;;;;;78.40;66.07;;;;;;;;;;5025340;28;20425;-76
2024/01/30 02:41:09;;;;;;;88.03;71.55;;;;;;;;;;5007949;28;20083;-79
2024/01/30 02:43:34;;;;;;;125.50;100.95;;;;;;;;;;5007634;28;20120;-77
2024/01/30 02:46:00;;;;;;;105.90;89.15;;;;;;;;;;5025642;28;20112;-76
2024/01/30 02:48:26;;;;;;;79.85;62.22;;;;;;;;;;5025110;28;20017;-75
2024/01/30 02:50:52;;;;;;;58.90;49.05;;;;;;;;;;5025242;28;20103;-75
2024/01/30 02:53:17;;;;;;;66.25;54.38;;;;;;;;;;5025040;28;20029;-77
2024/01/30 02:55:42;;;;;;;80.68;65.28;;;;;;;;;;5025340;28;20025;-76
2024/01/30 02:58:08;;;;;;;88.85;73.07;;;;;;;;;;5029158;28;20053;-80
2024/01/30 03:00:33;;;;;;;81.82;66.63;;;;;;;;;;5029494;28;20029;-77
2024/01/30 03:02:59;;;;;;;81.47;67.03;;;;;;;;;;5028828;28;20072;-76
2024/01/30 03:05:24;;;;;;;75.53;62.75;;;;;;;;;;5029255;28;20424;-77
2024/01/30 03:07:50;;;;;;;75.80;62.00;;;;;;;;;;5028959;28;20087;-76
2024/01/30 03:10:15;;;;;;;73.57;60.85;;;;;;;;;;5011450;28;20020;-75
2024/01/30 03:12:40;;;;;;;108.80;91.80;;;;;;;;;;5029058;28;20455;-75
2024/01/30 03:15:06;;;;;;;106.22;84.78;;;;;;;;;;5022167;28;20100;-77
2024/01/30 03:17:32;;;;;;;90.35;74.20;;;;;;;;;;5027030;28;20029;-75
2024/01/30 03:19:57;;;;;;;86.57;67.53;;;;;;;;;;5029028;28;20067;-75
2024/01/30 03:22:22;;;;;;;107.70;85.07;;;;;;;;;;5028721;28;20509;-74
2024/01/30 03:24:48;;;;;;;122.30;97.75;;;;;;;;;;5028489;28;20029;-74
2024/01/30 03:27:13;;;;;;;99.30;83.70;;;;;;;;;;5028449;28;20033;-76
2024/01/30 03:29:39;;;;;;;91.22;75.60;;;;;;;;;;5027952;28;20033;-76
2024/01/30 03:32:04;;;;;;;85.85;70.78;;;;;;;;;;5020381;28;20056;-77
2024/01/30 03:34:29;;;;;;;93.07;74.63;;;;;;;;;;5028567;28;20033;-76
2024/01/30 03:36:55;;;;;;;89.78;72.93;;;;;;;;;;5028738;28;20101;-77
2024/01/30 03:39:20;;;;;;;86.88;70.45;;;;;;;;;;5028761;28;20017;-76
2024/01/30 03:41:45;;;;;;;90.03;73.68;;;;;;;;;;5028018;28;20057;-79
2024/01/30 03:44:11;;;;;;;88.13;72.60;;;;;;;;;;5027933;28;20239;-78
2024/01/30 03:46:36;;;;;;;108.72;90.10;;;;;;;;;;5027957;28;20025;-77
2024/01/30 03:49:02;;;;;;;160.23;134.07;;;;;;;;;;5027860;28;20018;-76
2024/01/30 03:51:27;;;;;;;129.43;107.25;;;;;;;;;;5027269;28;20095;-76
2024/01/30 03:53:52;;;;;;;84.35;66.50;;;;;;;;;;5019544;28;20116;-77
2024/01/30 03:56:18;;;;;;;56.40;50.33;;;;;;;;;;5027834;28;20021;-78
2024/01/30 03:58:43;;;;;;;68.40;62.17;;;;;;;;;;5028192;28;20022;-76
2024/01/30 04:01:13;;;;;;;111.82;89.30;;;;;;;;;;5027995;28;20057;-78
2024/01/30 04:03:38;;;;;;;139.68;102.47;;;;;;;;;;5027788;28;20072;-77
2024/01/30 04:06:04;;;;;;;138.82;98.38;;;;;;;;;;5027453;28;20467;-76
2024/01/30 04:08:29;;;;;;;134.98;100.65;;;;;;;;;;5018798;28;20383;-76
2024/01/30 04:10:55;;;;;;;129.85;97.53;;;;;;;;;;5027688;28;20025;-75
2024/01/30 04:13:20;;;;;;;104.50;81.45;;;;;;;;;;5010143;28;20488;-75
2024/01/30 04:15:46;;;;;;;95.85;81.22;;;;;;;;;;5027595;28;20029;-76
2024/01/30 04:18:11;;;;;;;74.25;58.97;;;;;;;;;;5027606;28;20025;-76
2024/01/30 04:20:36;;;;;;;49.53;40.47;;;;;;;;;;5009817;28;20393;-75
2024/01/30 04:23:02;;;;;;;50.70;43.55;;;;;;;;;;5023954;28;21050;-75
2024/01/30 04:25:27;;;;;;;57.00;46.65;;;;;;;;;;5022164;28;20404;-75
2024/01/30 04:27:52;;;;;;;63.75;51.95;;;;;;;;;;5028025;28;20100;-77
2024/01/30 04:30:18;;;;;;;61.95;53.38;;;;;;;;;;5027655;28;20350;-77
2024/01/30 04:32:43;;;;;;;56.47;45.83;;;;;;;;;;5027718;28;20033;-76
2024/01/30 04:35:09;;;;;;;52.17;45.65;;;;;;;;;;5027004;28;20463;-81
2024/01/30 04:37:34;;;;;;;48.03;40.38;;;;;;;;;;5027111;28;20030;-77
2024/01/30 04:40:00;;;;;;;67.35;54.08;;;;;;;;;;5026979;28;20052;-80
2024/01/30 04:42:25;;;;;;;67.10;54.25;;;;;;;;;;5027388;28;20064;-77
2024/01/30 04:44:50;;;;;;;95.55;78.70;;;;;;;;;;5027289;28;20044;-77
2024/01/30 04:47:16;;;;;;;90.88;75.93;;;;;;;;;;5026939;28;20748;-76
2024/01/30 04:49:41;;;;;;;74.75;64.30;;;;;;;;;;5018169;28;20113;-77
2024/01/30 04:52:07;;;;;;;75.53;57.97;;;;;;;;;;5016854;28;20029;-75
2024/01/30 04:54:32;;;;;;;69.30;57.10;;;;;;;;;;5021219;28;20096;-76
2024/01/30 04:56:58;;;;;;;61.97;52.38;;;;;;;;;;5016488;28;20053;-78
2024/01/30 04:59:23;;;;;;;66.75;53.63;;;;;;;;;;5016222;28;20033;-78
2024/01/30 05:01:49;;;;;;;213.73;194.65;;;;;;;;;;5015959;28;20033;-79
2024/01/30 05:04:14;;;;;;;77.05;68.95;;;;;;;;;;5016768;28;20057;-78
2024/01/30 05:06:39;;;;;;;57.00;50.90;;;;;;;;;;5003592;28;20025;-76
2024/01/30 05:09:05;;;;;;;50.03;44.42;;;;;;;;;;5026181;28;20029;-76
2024/01/30 05:11:30;;;;;;;51.22;38.47;;;;;;;;;;5026822;28;20030;-75
2024/01/30 05:13:56;;;;;;;93.43;81.30;;;;;;;;;;5026251;28;20377;-77
2024/01/30 05:16:21;;;;;;;53.60;47.80;;;;;;;;;;5026432;28;20409;-77
2024/01/30 05:18:46;;;;;;;59.58;50.33;;;;;;;;;;5025199;28;20021;-80
2024/01/30 05:21:12;;;;;;;57.40;47.85;;;;;;;;;;5018780;28;20439;-78
2024/01/30 05:23:37;;;;;;;65.00;53.97;;;;;;;;;;5025056;28;20356;-78
2024/01/30 05:26:02;;;;;;;128.18;96.70;;;;;;;;;;5026409;28;20029;-83
2024/01/30 05:28:31;;;;;;;106.55;83.45;;;;;;;;;;5026557;28;20029;-78
2024/01/30 05:30:56;;;;;;;128.60;96.68;;;;;;;;;;5026001;28;20029;-80
2024/01/30 05:33:22;;;;;;;212.25;161.90;;;;;;;;;;5022912;28;20025;-79
2024/01/30 05:35:48;;;;;;;176.57;135.55;;;;;;;;;;5016179;28;20096;-77
2024/01/30 05:38:13;;;;;;;150.48;116.18;;;;;;;;;;5021007;28;20025;-78
2024/01/30 05:40:39;;;;;;;107.07;83.93;;;;;;;;;;5026541;28;20116;-77
2024/01/30 05:43:04;;;;;;;167.48;123.10;;;;;;;;;;5025931;28;20024;-78
2024/01/30 05:45:29;;;;;;;212.98;156.27;;;;;;;;;;5007878;28;20466;-76
2024/01/30 05:47:55;;;;;;;222.60;159.75;;;;;;;;;;5025181;28;20456;-77
2024/01/30 05:50:23;;;;;;;219.63;155.82;;;;;;;;;;5022977;28;20017;-77
2024/01/30 05:52:48;;;;;;;215.73;158.45;;;;;;;;;;5017142;28;20112;-77
2024/01/30 05:55:14;;;;;;;297.92;223.15;;;;;;;;;;5023500;28;20100;-77
2024/01/30 05:57:39;;;;;;;239.95;180.98;;;;;;;;;;5015641;28;20427;-77
2024/01/30 06:00:05;;;;;;;275.23;208.85;;;;;;;;;;5016090;28;20037;-79
2024/01/30 06:02:31;;;;;;;259.23;194.05;;;;;;;;;;4999581;28;20033;-77
2024/01/30 06:04:56;;;;;;;255.43;194.07;;;;;;;;;;5025282;28;20120;-78
2024/01/30 06:07:22;;;;;;;231.00;175.80;;;;;;;;;;4995931;28;20107;-77
2024/01/30 06:09:47;;;;;;;206.15;154.93;;;;;;;;;;5024040;28;20455;-76
2024/01/30 06:12:12;;;;;;;180.93;131.85;;;;;;;;;;5024550;28;20021;-78
2024/01/30 06:14:38;;;;;;;182.30;147.38;;;;;;;;;;5008717;28;20554;-76
2024/01/30 06:17:04;;;;;;;386.30;301.70;;;;;;;;;;5025064;28;20025;-76
2024/01/30 06:19:30;;;;;;;331.35;251.55;;;;;;;;;;5025762;28;20014;-76
2024/01/30 06:21:55;;;;;;;251.32;185.73;;;;;;;;;;5024172;28;20033;-75
2024/01/30 06:24:20;;;;;;;279.27;219.63;;;;;;;;;;5025519;28;20431;-75
2024/01/30 06:26:46;;;;;;;300.38;234.70;;;;;;;;;;5025453;28;20421;-77
2024/01/30 06:29:11;;;;;;;530.33;444.45;;;;;;;;;;5025456;28;20053;-74
2024/01/30 06:31:40;;;;;;;430.73;350.90;;;;;;;;;;5007023;28;20363;-75
2024/01/30 06:34:05;;;;;;;344.42;276.17;;;;;;;;;;5018242;28;20494;-78
2024/01/30 06:36:31;;;;;;;340.05;277.05;;;;;;;;;;5024211;28;20029;-76
2024/01/30 06:38:56;;;;;;;277.85;220.98;;;;;;;;;;5025119;28;20032;-71
2024/01/30 06:41:21;;;;;;;218.00;188.50;;;;;;;;;;5013746;28;20075;-73
2024/01/30 06:43:47;;;;;;;190.32;164.25;;;;;;;;;;5001941;28;20386;-73
2024/01/30 06:46:12;;;;;;;212.77;162.93;;;;;;;;;;5013864;28;20418;-75
2024/01/30 06:48:40;;;;;;;344.20;271.80;;;;;;;;;;5014306;28;20091;-71
2024/01/30 06:51:05;;;;;;;356.55;289.50;;;;;;;;;;5012976;28;20025;-73
2024/01/30 06:53:30;;;;;;;624.10;503.33;;;;;;;;;;5015086;28;20467;-76
2024/01/30 06:55:56;;;;;;;524.45;420.77;;;;;;;;;;5024408;28;20116;-72
2024/01/30 06:58:21;;;;;;;414.52;326.30;;;;;;;;;;5023995;28;20021;-71
2024/01/30 07:00:46;;;;;;;477.58;364.30;;;;;;;;;;5022981;28;20084;-75
2024/01/30 07:03:12;;;;;;;618.80;487.90;;;;;;;;;;5023443;28;20059;-74
2024/01/30 07:05:37;;;;;;;449.92;343.88;;;;;;;;;;5023456;28;20025;-73
2024/01/30 07:08:02;;;;;;;715.05;584.55;;;;;;;;;;5022402;28;20339;-72
2024/01/30 07:10:28;;;;;;;542.78;414.75;;;;;;;;;;5024012;28;20436;-72
2024/01/30 07:12:53;;;;;;;452.42;341.88;;;;;;;;;;5024494;28;20111;-74
2024/01/30 07:15:20;;;;;;;412.85;306.75;;;;;;;;;;5024385;28;20021;-73
2024/01/30 07:17:45;;;;;;;295.35;242.80;;;;;;;;;;5024838;28;20095;-73
2024/01/30 07:20:11;;;;;;;317.67;247.48;;;;;;;;;;5024812;28;20029;-74
2024/01/30 07:22:36;;;;;;;317.92;252.27;;;;;;;;;;5023797;28;20095;-73
2024/01/30 07:25:02;;;;;;;258.45;208.70;;;;;;;;;;5022913;28;20029;-73
2024/01/30 07:27:27;;;;;;;275.38;217.77;;;;;;;;;;5023902;28;20041;-72
2024/01/30 07:29:52;;;;;;;216.93;170.88;;;;;;;;;;5024563;28;20400;-73
2024/01/30 07:32:18;;;;;;;167.52;133.90;;;;;;;;;;5024933;28;20413;-73
2024/01/30 07:34:44;;;;;;;156.57;124.75;;;;;;;;;;5025042;28;20033;-75
2024/01/30 07:37:10;;;;;;;132.07;104.00;;;;;;;;;;5024421;28;20021;-72
2024/01/30 07:39:35;;;;;;;122.82;103.97;;;;;;;;;;5025130;28;20429;-75
2024/01/30 07:42:01;;;;;;;325.65;206.40;;;;;;;;;;5025444;28;20029;-73
2024/01/30 07:44:26;;;;;;;327.33;236.90;;;;;;;;;;5027949;28;20091;-73
2024/01/30 07:46:51;;;;;;;170.43;130.38;;;;;;;;;;5028576;28;20041;-73
2024/01/30 07:49:17;;;;;;;192.00;159.45;;;;;;;;;;5028164;28;20018;-71
2024/01/30 07:51:43;;;;;;;127.28;109.40;;;;;;;;;;5027666;28;20018;-72
2024/01/30 07:54:08;;;;;;;110.95;98.88;;;;;;;;;;5028060;28;20033;-72
2024/01/30 07:56:33;;;;;;;110.50;98.50;;;;;;;;;;5028139;28;20104;-75
2024/01/30 07:58:59;;;;;;;128.30;113.80;;;;;;;;;;5027955;28;20033;-75
2024/01/30 08:01:24;;;;;;;90.05;78.22;;;;;;;;;;5027828;28;20108;-74
2024/01/30 08:03:49;;;;;;;97.60;87.30;;;;;;;;;;5027703;28;20064;-72
2024/01/30 08:06:16;;;;;;;78.32;69.63;;;;;;;;;;5027122;28;20081;-73
2024/01/30 08:08:41;;;;;;;90.47;78.85;;;;;;;;;;5028176;28;20065;-72
2024/01/30 08:11:07;;;;;;;79.97;68.97;;;;;;;;;;5027376;28;20021;-73
2024/01/30 08:13:32;;;;;;;62.85;55.42;;;;;;;;;;5027276;28;20448;-76
2024/01/30 08:15:58;;;;;;;80.32;71.47;;;;;;;;;;5027226;28;20096;-75
2024/01/30 08:18:23;;;;;;;73.28;61.78;;;;;;;;;;5027322;28;20053;-73
2024/01/30 08:20:49;;;;;;;78.10;64.68;;;;;;;;;;5027920;28;20026;-76
2024/01/30 08:23:14;;;;;;;68.50;61.00;;;;;;;;;;5027432;28;20451;-73
2024/01/30 08:25:39;;;;;;;71.15;60.70;;;;;;;;;;5027215;28;20018;-71
2024/01/30 08:28:05;;;;;;;159.43;135.52;;;;;;;;;;5027293;28;20025;-71
2024/01/30 08:30:30;;;;;;;124.15;96.57;;;;;;;;;;5027068;28;20025;-71
2024/01/30 08:32:55;;;;;;;127.35;100.93;;;;;;;;;;5027216;28;20029;-71
2024/01/30 08:35:21;;;;;;;64.07;54.08;;;;;;;;;;5021369;28;20021;-71
2024/01/30 08:37:46;;;;;;;47.78;41.50;;;;;;;;;;5016297;28;20029;-71
2024/01/30 08:40:11;;;;;;;92.68;79.38;;;;;;;;;;5016810;28;20063;-72
2024/01/30 08:42:37;;;;;;;78.88;67.95;;;;;;;;;;5026138;28;20037;-72
2024/01/30 08:45:04;;;;;;;63.22;55.75;;;;;;;;;;5020150;28;20455;-71
2024/01/30 08:47:30;;;;;;;57.47;49.92;;;;;;;;;;5016619;28;20061;-71
2024/01/30 08:49:55;;;;;;;53.58;47.13;;;;;;;;;;5016295;28;20068;-71
2024/01/30 08:52:20;;;;;;;53.65;45.97;;;;;;;;;;5015909;28;20057;-71
2024/01/30 08:54:46;;;;;;;69.07;60.92;;;;;;;;;;5015950;28;20144;-71
2024/01/30 08:57:11;;;;;;;53.65;47.92;;;;;;;;;;5019737;28;20040;-71
2024/01/30 08:59:36;;;;;;;56.10;50.00;;;;;;;;;;5026012;28;20036;-71
2024/01/30 09:02:03;;;;;;;64.72;57.70;;;;;;;;;;5019735;28;20029;-72
2024/01/30 09:04:28;;;;;;;81.53;70.85;;;;;;;;;;5017514;28;20065;-72
2024/01/30 09:06:54;;;;;;;69.03;60.47;;;;;;;;;;5018078;28;20042;-74
2024/01/30 09:09:19;;;;;;;83.60;74.57;;;;;;;;;;5000036;28;20095;-71
2024/01/30 09:11:44;;;;;;;74.63;64.75;;;;;;;;;;5017244;28;20018;-70
2024/01/30 09:14:10;;;;;;;131.38;110.22;;;;;;;;;;5015792;28;20117;-71
2024/01/30 09:16:35;;;;;;;130.80;112.47;;;;;;;;;;5016015;28;20044;-70
2024/01/30 09:19:00;;;;;;;163.30;140.05;;;;;;;;;;5016185;28;20115;-72
2024/01/30 09:21:26;;;;;;;98.20;83.10;;;;;;;;;;5018493;28;20474;-72
2024/01/30 09:23:54;;;;;;;102.35;91.35;;;;;;;;;;5026722;28;20030;-71
2024/01/30 09:26:19;;;;;;;94.38;84.38;;;;;;;;;;5025862;28;20460;-71
2024/01/30 09:28:44;;;;;;;80.20;71.65;;;;;;;;;;5026029;28;20021;-71
2024/01/30 09:31:10;;;;;;;76.60;68.40;;;;;;;;;;5025918;28;20021;-70
2024/01/30 09:33:36;;;;;;;110.03;98.28;;;;;;;;;;5026459;28;20357;-77
2024/01/30 09:36:01;;;;;;;72.88;64.22;;;;;;;;;;5026429;28;20033;-69
2024/01/30 09:38:26;;;;;;;79.10;70.68;;;;;;;;;;5025622;28;20025;-74
2024/01/30 09:40:55;;;;;;;64.93;57.90;;;;;;;;;;5026341;28;20025;-76
2024/01/30 09:43:22;;;;;;;65.18;58.20;;;;;;;;;;5025287;28;20029;-74
2024/01/30 09:45:49;;;;;;;83.78;72.35;;;;;;;;;;5025802;28;20037;-72
2024/01/30 09:48:15;;;;;;;101.55;91.70;;;;;;;;;;5016748;28;20399;-70
2024/01/30 09:50:40;;;;;;;68.78;61.63;;;;;;;;;;5025490;28;20021;-70
2024/01/30 09:53:06;;;;;;;69.80;62.42;;;;;;;;;;5024138;28;20091;-75
2024/01/30 09:55:32;;;;;;;62.45;55.45;;;;;;;;;;5014465;28;20021;-72
2024/01/30 09:57:57;;;;;;;57.58;51.25;;;;;;;;;;5017523;28;20143;-71
2024/01/30 10:00:27;;;;;;;53.30;46.40;;;;;;;;;;5017363;28;20065;-71
2024/01/30 10:02:52;;;;;;;66.75;59.42;;;;;;;;;;5024888;28;20044;-68
2024/01/30 10:05:18;;;;;;;72.85;64.97;;;;;;;;;;5019926;28;20033;-73
2024/01/30 10:07:54;;;;;;;56.50;50.47;;;;;;;;;;5021805;28;20099;-70
2024/01/30 10:10:21;;;;;;;62.55;55.95;;;;;;;;;;5025318;28;20395;-71
2024/01/30 10:12:46;;;;;;;50.28;44.80;;;;;;;;;;5025821;28;20021;-70
2024/01/30 10:15:12;;;;;;;66.88;59.83;;;;;;;;;;5025733;28;20025;-70
2024/01/30 10:17:38;;;;;;;57.70;51.63;;;;;;;;;;5026032;28;20057;-70
2024/01/30 10:20:07;;;;;;;66.38;55.67;;;;;;;;;;5019583;28;20479;-71
2024/01/30 10:22:33;;;;;;;53.72;48.03;;;;;;;;;;5021832;28;20017;-69
2024/01/30 10:24:59;;;;;;;63.55;53.83;;;;;;;;;;5016334;28;20034;-70
2024/01/30 10:27:29;;;;;;;56.55;50.28;;;;;;;;;;5025662;28;20022;-69
2024/01/30 10:29:54;;;;;;;78.47;65.07;;;;;;;;;;5019303;28;20022;-74
2024/01/30 10:32:20;;;;;;;69.80;59.63;;;;;;;;;;5014760;28;20095;-71
2024/01/30 10:34:46;;;;;;;70.82;61.28;;;;;;;;;;5015085;28;20156;-70
2024/01/30 10:37:20;;;;;;;68.60;56.83;;;;;;;;;;5015621;28;20373;-69
2024/01/30 10:39:46;;;;;;;71.80;59.15;;;;;;;;;;5017228;28;20021;-79
2024/01/30 10:42:15;;;;;;;124.00;102.82;;;;;;;;;;5025264;28;20087;-74
2024/01/30 10:44:59;;;;;;;88.07;77.38;;;;;;;;;;5025252;28;20064;-76
2024/01/30 10:47:28;;;;;;;106.80;93.85;;;;;;;;;;5025548;28;20045;-76
2024/01/30 10:49:57;;;;;;;56.42;50.38;;;;;;;;;;5016384;28;20776;-74
2024/01/30 10:52:25;;;;;;;54.83;48.25;;;;;;;;;;5021244;28;20044;-71
2024/01/30 10:54:51;;;;;;;152.50;95.55;;;;;;;;;;5025040;28;20084;-73
2024/01/30 10:57:17;;;;;;;68.10;58.03;;;;;;;;;;5021516;28;20383;-75
2024/01/30 10:59:43;;;;;;;76.43;63.78;;;;;;;;;;5015874;28;20510;-72
2024/01/30 11:02:09;;;;;;;49.63;44.45;;;;;;;;;;5014170;28;20034;-74
2024/01/30 11:04:38;;;;;;;46.58;41.60;;;;;;;;;;5020419;28;20090;-73
2024/01/30 11:07:23;;;;;;;43.80;39.43;;;;;;;;;;5013745;28;20414;-72
2024/01/30 11:09:52;;;;;;;44.65;39.95;;;;;;;;;;5019855;28;20239;-78
2024/01/30 11:12:21;;;;;;;59.75;53.63;;;;;;;;;;5025703;28;20025;-75
2024/01/30 11:14:46;;;;;;;69.25;61.92;;;;;;;;;;5025137;28;20041;-76
2024/01/30 11:17:12;;;;;;;46.85;42.20;;;;;;;;;;5026128;28;20444;-73
2024/01/30 11:19:37;;;;;;;221.68;142.35;;;;;;;;;;5029248;28;20025;-75
2024/01/30 11:22:04;;;;;;;85.78;70.35;;;;;;;;;;5028647;28;20017;-73
2024/01/30 11:24:29;;;;;;;40.67;36.55;;;;;;;;;;5028850;28;20040;-77
2024/01/30 11:26:56;;;;;;;39.42;34.97;;;;;;;;;;5029152;28;20021;-76
2024/01/30 11:29:24;;;;;;;39.83;35.80;;;;;;;;;;5029026;28;20124;-72
2024/01/30 11:31:56;;;;;;;37.60;33.90;;;;;;;;;;5029159;28;20021;-72
2024/01/30 11:34:22;;;;;;;54.97;45.03;;;;;;;;;;5028189;28;20205;-73
2024/01/30 11:36:52;;;;;;;47.35;40.13;;;;;;;;;;5027066;28;20021;-72
2024/01/30 11:39:17;;;;;;;;;;;;;;;;;;5016746;28;20027;-78
2024/01/30 11:41:43;;;;;;;64.93;53.60;;;;;;;;;;5025649;28;19913;-75
2024/01/30 11:44:09;;;;;;;45.35;40.63;;;;;;;;;;5021824;28;20361;-78
2024/01/30 11:46:34;;;;;;;37.97;30.60;;;;;;;;;;5026398;28;20445;-70
2024/01/30 11:49:00;;;;;;;28.20;24.58;;;;;;;;;;5027694;28;20037;-72
2024/01/30 11:51:25;;;;;;;68.30;48.92;;;;;;;;;;5021527;28;20048;-77
2024/01/30 11:53:51;;;;;;;23.95;21.33;;;;;;;;;;5017239;28;20025;-72
2024/01/30 11:56:17;;;;;;;24.48;21.65;;;;;;;;;;5017298;28;20087;-74
2024/01/30 11:58:42;;;;;;;15.20;13.90;;;;;;;;;;5017870;28;20088;-76
2024/01/30 12:01:08;;;;;;;16.70;15.10;;;;;;;;;;5017541;28;20048;-76
2024/01/30 12:03:33;;;;;;;18.73;16.92;;;;;;;;;;5017387;28;20058;-74
2024/01/30 12:05:58;;;;;;;38.00;30.95;;;;;;;;;;5017850;28;20026;-73
2024/01/30 12:08:24;;;;;;;56.38;37.70;;;;;;;;;;5027567;28;20044;-75
2024/01/30 12:10:56;;;;;;;82.57;50.75;;;;;;;;;;5026571;28;20152;-73
2024/01/30 12:13:21;;;;;;;23.17;20.02;;;;;;;;;;5028587;28;20036;-74
2024/01/30 12:15:47;;;;;;;19.50;17.60;;;;;;;;;;5019598;28;20037;-74
2024/01/30 12:18:12;;;;;;;30.92;27.70;;;;;;;;;;5020164;28;20079;-74
2024/01/30 12:20:37;;;;;;;39.25;33.92;;;;;;;;;;5025181;28;20033;-74
2024/01/30 12:23:03;;;;;;;22.58;20.27;;;;;;;;;;5027652;28;20325;-74
2024/01/30 12:25:29;;;;;;;48.72;38.65;;;;;;;;;;5027571;28;20034;-75
2024/01/30 12:27:54;;;;;;;21.08;18.92;;;;;;;;;;5027906;28;20515;-72
2024/01/30 12:30:20;;;;;;;57.15;47.38;;;;;;;;;;5027494;28;20034;-75
2024/01/30 12:32:46;;;;;;;23.98;21.55;;;;;;;;;;5027286;28;20482;-72
2024/01/30 12:35:15;;;;;;;37.08;32.63;;;;;;;;;;5027793;28;20017;-73
2024/01/30 12:37:42;;;;;;;19.70;17.80;;;;;;;;;;5027502;28;20060;-73
2024/01/30 12:40:08;;;;;;;16.13;14.73;;;;;;;;;;5027873;28;20033;-75
2024/01/30 12:42:33;;;;;;;19.70;17.80;;;;;;;;;;5027569;28;20029;-72
2024/01/30 12:44:59;;;;;;;21.85;19.88;;;;;;;;;;5027746;28;20064;-74
2024/01/30 12:47:24;;;;;;;23.05;20.42;;;;;;;;;;5027147;28;20111;-73
2024/01/30 12:49:53;;;;;;;23.02;20.88;;;;;;;;;;5027485;28;20560;-73
2024/01/30 12:52:18;;;;;;;20.75;18.65;;;;;;;;;;5027261;28;20495;-76
2024/01/30 12:54:44;;;;;;;15.27;14.07;;;;;;;;;;5027886;28;20052;-72
2024/01/30 12:57:09;;;;;;;21.48;19.58;;;;;;;;;;5027585;28;20037;-73
2024/01/30 12:59:35;;;;;;;16.52;15.23;;;;;;;;;;5026580;28;20160;-73
2024/01/30 13:02:01;;;;;;;19.42;17.95;;;;;;;;;;5026645;28;20451;-75
2024/01/30 13:04:27;;;;;;;15.02;13.90;;;;;;;;;;5027179;28;20050;-75
2024/01/30 13:06:52;;;;;;;16.33;14.80;;;;;;;;;;5026510;28;20341;-74
2024/01/30 13:09:17;;;;;;;14.32;13.10;;;;;;;;;;5026630;28;20096;-74
2024/01/30 13:11:43;;;;;;;25.27;22.95;;;;;;;;;;5026574;28;20021;-74
2024/01/30 13:14:08;;;;;;;15.85;14.65;;;;;;;;;;5026788;28;20032;-74
2024/01/30 13:16:33;;;;;;;19.25;17.73;;;;;;;;;;5026585;28;20535;-74
2024/01/30 13:19:00;;;;;;;21.25;19.50;;;;;;;;;;5027173;28;20330;-74
2024/01/30 13:21:26;;;;;;;18.77;17.38;;;;;;;;;;5026521;28;20033;-74
2024/01/30 13:23:53;;;;;;;14.88;13.73;;;;;;;;;;5026495;28;20041;-75
2024/01/30 13:26:19;;;;;;;24.55;22.55;;;;;;;;;;5026539;28;20440;-73
2024/01/30 13:28:44;;;;;;;18.35;16.85;;;;;;;;;;5026466;28;20027;-75
2024/01/30 13:31:10;;;;;;;22.58;20.77;;;;;;;;;;5026691;28;20425;-73
2024/01/30 13:33:35;;;;;;;20.63;18.83;;;;;;;;;;5025933;28;20064;-73
2024/01/30 13:36:00;;;;;;;17.55;16.15;;;;;;;;;;5026103;28;20052;-76
2024/01/30 13:38:26;;;;;;;17.40;16.05;;;;;;;;;;5026006;28;20021;-73
2024/01/30 13:40:52;;;;;;;16.02;14.98;;;;;;;;;;5025498;28;20033;-73
2024/01/30 13:43:17;;;;;;;15.98;14.88;;;;;;;;;;5026287;28;20057;-74
2024/01/30 13:45:43;;;;;;;16.30;15.00;;;;;;;;;;5026206;28;20340;-76
2024/01/30 13:48:08;;;;;;;15.60;14.40;;;;;;;;;;5025826;28;20467;-73
2024/01/30 13:50:33;;;;;;;28.55;25.85;;;;;;;;;;5026236;28;20026;-71
2024/01/30 13:52:59;;;;;;;19.40;17.63;;;;;;;;;;5025935;28;20029;-73
2024/01/30 13:55:25;;;;;;;24.13;21.63;;;;;;;;;;5026577;28;20044;-74
2024/01/30 13:57:50;;;;;;;22.70;20.70;;;;;;;;;;5026369;28;20075;-76
2024/01/30 14:00:16;;;;;;;24.27;21.90;;;;;;;;;;5025570;28;20104;-77